Current Weather

Chicago Midway Intl

Chicago, Illinois (KMDW)

Report from: Thursday, August 18, 2022 10:53 PM CDT
Current time: Thursday, August 18, 2022 11:58 PM CDT

Nearby weather
Weather history
Weather forecast

Temperature25.0°C (77.0°F)
Dew point15.0°C (59.0°F)
Winds 5 kts (2.6 m/s, 5.8 mph) South (180°)
Visibility10 mi. (16.1 km)
Clouds Few clouds 25,000 ft. (7,620 m)
Altimeter29.94 in.Hg (1014 mB)
Relative humidity54 %
Density altitude1,373 ft. (418 m)
Sea-level pressure101.3 kPa (1013 mB, 29.91 in.Hg)
Remarks Automated weather observing station with precipitation discriminator
Flight conditions Visual Meteorological Conditions
Raw dataKMDW 190353Z 18005KT 10SM FEW250 25/15 A2994 RMK AO2 SLP127 T02500150
An unhandled exception has occurred. See browser dev tools for details. Reload 🗙